Time;durP1;ratioP1;P1;durP2;ratioP2;P2;SDS_P1;SDS_P2;PMS_P1;PMS_P2;Temp;Humidity;BMP_temperature;BMP_pressure;BME280_temperature;BME280_humidity;BME280_pressure;Samples;Min_cycle;Max_cycle;Signal;HPM_P1;HPM_P2
2023/02/04 00:02:04;;;;;;;34.55;4.63;;;;;;;7.67;90.92;102660.13;5095309;28;20048;-54
2023/02/04 00:04:31;;;;;;;30.50;4.97;;;;;;;7.61;90.73;102656.03;5095514;28;20109;-54
2023/02/04 00:06:57;;;;;;;31.63;4.45;;;;;;;7.59;90.31;102657.91;5095199;28;20071;-53
2023/02/04 00:09:24;;;;;;;31.83;5.15;;;;;;;7.52;91.03;102666.28;5095487;28;20075;-53
2023/02/04 00:11:51;;;;;;;35.70;6.00;;;;;;;7.55;91.49;102663.44;5095470;28;20044;-53
2023/02/04 00:14:17;;;;;;;34.75;5.07;;;;;;;7.48;90.99;102670.88;5095646;28;20074;-53
2023/02/04 00:16:44;;;;;;;32.92;4.72;;;;;;;7.53;91.19;102660.03;5093978;28;20055;-53
2023/02/04 00:19:11;;;;;;;38.28;5.50;;;;;;;7.48;91.00;102670.88;5095008;28;20036;-53
2023/02/04 00:21:37;;;;;;;34.03;4.75;;;;;;;7.50;91.23;102687.50;5095009;28;20505;-53
2023/02/04 00:24:04;;;;;;;34.28;5.20;;;;;;;7.51;90.37;102689.19;5093841;28;20074;-53
2023/02/04 00:26:31;;;;;;;29.60;4.82;;;;;;;7.50;91.49;102685.69;5095309;28;20050;-52
2023/02/04 00:28:57;;;;;;;29.73;4.80;;;;;;;7.59;91.55;102676.41;5094800;28;20044;-53
2023/02/04 00:31:24;;;;;;;21.33;3.97;;;;;;;7.55;91.60;102671.38;5093998;28;20516;-53
2023/02/04 00:33:51;;;;;;;34.65;5.22;;;;;;;7.59;92.40;102680.84;5094612;28;20040;-53
2023/02/04 00:36:18;;;;;;;33.95;4.82;;;;;;;7.60;90.91;102686.00;5095048;28;20161;-53
2023/02/04 00:38:44;;;;;;;32.08;4.60;;;;;;;7.53;90.19;102684.69;5094520;28;20468;-53
2023/02/04 00:41:12;;;;;;;32.22;4.75;;;;;;;7.53;90.43;102682.06;5094654;28;20610;-54
2023/02/04 00:43:38;;;;;;;33.92;4.63;;;;;;;7.55;90.21;102685.44;5094817;28;20448;-54
2023/02/04 00:46:06;;;;;;;37.47;4.97;;;;;;;7.52;89.82;102676.84;5093373;28;20036;-54
2023/02/04 00:48:34;;;;;;;42.08;5.57;;;;;;;7.51;90.87;102681.25;5094556;28;20036;-54
2023/02/04 00:51:01;;;;;;;40.58;5.72;;;;;;;7.44;91.25;102679.91;5094696;28;20048;-53
2023/02/04 00:53:28;;;;;;;33.90;4.85;;;;;;;7.44;91.04;102682.53;5094514;28;20068;-54
2023/02/04 00:55:56;;;;;;;35.25;5.00;;;;;;;7.40;91.31;102691.56;5094546;28;20160;-54
2023/02/04 00:58:22;;;;;;;40.53;5.28;;;;;;;7.40;91.54;102691.56;5094204;28;20082;-54
2023/02/04 01:00:49;;;;;;;38.72;4.43;;;;;;;7.35;90.86;102698.91;5093604;28;20047;-54
2023/02/04 01:03:16;;;;;;;35.50;4.72;;;;;;;7.34;90.09;102700.69;5094569;28;20043;-54
2023/02/04 01:05:43;;;;;;;33.88;5.05;;;;;;;7.37;89.95;102689.97;5094147;28;20097;-53
2023/02/04 01:08:10;;;;;;;36.78;4.70;;;;;;;7.32;91.70;102699.94;5089933;28;20053;-53
2023/02/04 01:10:36;;;;;;;37.83;5.00;;;;;;;7.41;91.47;102706.50;5073129;28;20048;-53
2023/02/04 01:13:03;;;;;;;40.72;4.68;;;;;;;7.29;91.39;102694.81;5073293;28;20098;-54
2023/02/04 01:15:30;;;;;;;33.85;4.50;;;;;;;7.36;91.89;102704.09;5073294;28;20474;-53
2023/02/04 01:17:56;;;;;;;36.75;4.88;;;;;;;7.37;92.27;102702.31;5073837;28;20072;-53
2023/02/04 01:20:23;;;;;;;34.25;4.72;;;;;;;7.42;91.25;102697.63;5085365;28;20055;-54
2023/02/04 01:22:50;;;;;;;37.33;5.07;;;;;;;7.46;91.71;102704.47;5092581;28;20093;-53
2023/02/04 01:25:17;;;;;;;39.15;5.13;;;;;;;7.51;91.88;102707.66;5093897;28;20493;-52
2023/02/04 01:27:44;;;;;;;31.13;4.40;;;;;;;7.51;92.12;102697.09;5093671;28;20040;-53
2023/02/04 01:30:13;;;;;;;33.50;4.55;;;;;;;7.43;91.84;102702.81;5093871;28;20467;-52
2023/02/04 01:32:40;;;;;;;31.33;4.72;;;;;;;7.37;92.16;102697.03;5093842;28;20047;-53
2023/02/04 01:35:08;;;;;;;30.95;4.38;;;;;;;7.28;92.53;102703.69;5093901;28;20044;-53
2023/02/04 01:37:34;;;;;;;35.88;5.10;;;;;;;7.32;93.09;102715.78;5093789;28;20048;-53
2023/02/04 01:40:01;;;;;;;38.65;4.95;;;;;;;7.30;92.19;102720.28;5093751;28;20081;-53
2023/02/04 01:42:28;;;;;;;32.42;4.97;;;;;;;7.27;92.09;102731.00;5093077;28;20063;-53
2023/02/04 01:44:54;;;;;;;31.20;4.32;;;;;;;7.30;92.32;102729.06;5093907;28;20052;-52
2023/02/04 01:47:24;;;;;;;36.45;4.68;;;;;;;7.21;91.82;102731.34;5093588;28;20096;-52
2023/02/04 01:49:53;;;;;;;38.25;4.82;;;;;;;7.25;92.42;102728.44;5093611;28;20370;-53
2023/02/04 01:52:21;;;;;;;40.78;5.10;;;;;;;7.21;92.04;102736.63;5093536;28;20063;-52
2023/02/04 01:54:50;;;;;;;32.85;4.38;;;;;;;7.32;91.91;102736.06;5093616;28;20048;-53
2023/02/04 01:57:17;;;;;;;31.08;4.15;;;;;;;7.20;92.42;102740.19;5093403;28;20130;-53
2023/02/04 01:59:46;;;;;;;37.47;4.60;;;;;;;7.23;91.48;102745.31;5093097;28;20044;-53
2023/02/04 02:02:41;;;;;;;38.55;4.75;;;;;;;7.13;92.54;102739.69;5093370;28;20052;-52
2023/02/04 02:05:11;;;;;;;33.90;4.53;;;;;;;7.11;92.37;102742.41;5093558;28;20127;-53
2023/02/04 02:07:38;;;;;;;38.45;4.55;;;;;;;7.15;92.58;102737.81;5092768;28;20105;-53
2023/02/04 02:10:07;;;;;;;29.15;4.90;;;;;;;7.13;92.95;102737.06;5093525;28;20094;-50
2023/02/04 02:12:35;;;;;;;36.05;4.30;;;;;;;7.19;92.51;102741.16;5093434;28;20059;-53
2023/02/04 02:15:03;;;;;;;26.98;3.90;;;;;;;7.22;92.42;102743.59;5093407;28;20078;-53
2023/02/04 02:17:30;;;;;;;29.35;4.30;;;;;;;7.11;91.94;102746.81;5093463;28;20059;-53
2023/02/04 02:19:56;;;;;;;29.20;3.83;;;;;;;7.06;92.33;102754.16;5093316;28;20401;-53
2023/02/04 02:22:32;;;;;;;25.58;3.58;;;;;;;7.13;92.11;102757.28;5093445;28;20048;-53
2023/02/04 02:24:58;;;;;;;46.05;5.00;;;;;;;7.26;92.30;102758.38;5093526;28;20040;-53
2023/02/04 02:27:25;;;;;;;31.52;4.43;;;;;;;7.15;91.56;102766.84;5093276;28;20071;-53
2023/02/04 02:29:52;;;;;;;29.67;4.20;;;;;;;7.17;93.07;102762.34;5093275;28;20048;-54
2023/02/04 02:32:19;;;;;;;30.10;4.45;;;;;;;7.11;92.42;102770.56;5093274;28;20458;-53
2023/02/04 02:34:46;;;;;;;35.47;4.57;;;;;;;7.16;92.37;102770.34;5093295;28;20130;-53
2023/02/04 02:37:13;;;;;;;26.95;4.55;;;;;;;7.24;91.73;102776.03;5093464;28;20093;-53
2023/02/04 02:39:43;;;;;;;33.17;4.28;;;;;;;7.23;91.94;102774.34;5092900;28;20056;-53
2023/02/04 02:42:15;;;;;;;30.67;4.22;;;;;;;7.30;91.95;102776.56;5093123;28;20052;-54
2023/02/04 02:44:44;;;;;;;31.25;4.53;;;;;;;7.32;92.10;102776.50;5093168;28;20097;-53
2023/02/04 02:47:14;;;;;;;28.33;4.50;;;;;;;7.24;91.67;102768.13;5093349;28;20083;-53
2023/02/04 02:49:42;;;;;;;29.52;4.15;;;;;;;7.34;91.26;102776.41;5093094;28;20048;-53
2023/02/04 02:52:11;;;;;;;36.10;4.28;;;;;;;7.27;91.95;102775.88;5091628;28;20614;-53
2023/02/04 02:54:39;;;;;;;26.88;3.72;;;;;;;7.24;92.11;102776.03;5094828;28;20440;-53
2023/02/04 02:57:13;;;;;;;34.28;5.25;;;;;;;7.15;92.77;102782.69;5096904;28;20048;-54
2023/02/04 02:59:41;;;;;;;26.42;3.72;;;;;;;7.25;92.59;102772.47;5096285;28;20044;-54
2023/02/04 03:02:10;;;;;;;37.25;4.40;;;;;;;7.20;93.34;102774.50;5096558;28;20074;-53
2023/02/04 03:04:42;;;;;;;34.28;4.30;;;;;;;7.17;92.54;102779.94;5096945;28;20409;-52
2023/02/04 03:07:13;;;;;;;34.97;4.35;;;;;;;7.13;93.19;102781.94;5096434;28;20052;-52
2023/02/04 03:09:40;;;;;;;30.80;4.05;;;;;;;7.20;93.62;102785.06;5088875;28;20449;-53
2023/02/04 03:12:07;;;;;;;33.88;4.40;;;;;;;7.13;93.70;102787.22;5096128;28;20044;-52
2023/02/04 03:14:37;;;;;;;34.97;4.50;;;;;;;7.15;94.10;102787.09;5095652;28;20101;-52
2023/02/04 03:17:07;;;;;;;33.95;4.45;;;;;;;7.06;93.93;102780.53;5096250;28;20131;-52
2023/02/04 03:19:35;;;;;;;26.58;4.28;;;;;;;7.04;94.26;102782.38;5095122;28;20166;-53
2023/02/04 03:22:04;;;;;;;35.00;3.95;;;;;;;7.07;93.91;102782.22;5095101;28;20052;-52
2023/02/04 03:24:32;;;;;;;37.97;3.97;;;;;;;7.05;94.38;102792.03;5096124;28;20052;-52
2023/02/04 03:26:59;;;;;;;25.17;3.80;;;;;;;7.02;94.22;102789.53;5096331;28;20064;-52
2023/02/04 03:29:26;;;;;;;33.55;5.72;;;;;;;6.95;94.91;102793.44;5096136;28;20089;-52
2023/02/04 03:31:55;;;;;;;28.05;4.07;;;;;;;6.97;94.83;102787.16;5096222;28;20040;-53
2023/02/04 03:34:22;;;;;;;33.72;4.38;;;;;;;6.91;95.70;102793.63;5096232;28;20044;-53
2023/02/04 03:36:48;;;;;;;31.83;4.18;;;;;;;6.90;95.69;102793.69;5096346;28;20062;-53
2023/02/04 03:39:15;;;;;;;30.90;4.72;;;;;;;6.86;95.49;102794.78;5095693;28;20044;-52
2023/02/04 03:41:42;;;;;;;27.92;4.65;;;;;;;6.89;96.04;102803.41;5096075;28;20508;-52
2023/02/04 03:44:08;;;;;;;29.85;5.28;;;;;;;6.88;95.77;102819.31;5095914;28;20044;-53
2023/02/04 03:46:35;;;;;;;29.27;4.18;;;;;;;6.78;97.11;102816.25;5096127;28;20051;-53
2023/02/04 03:49:02;;;;;;;28.13;3.45;;;;;;;6.86;95.90;102814.09;5095805;28;20044;-53
2023/02/04 03:51:29;;;;;;;34.15;4.63;;;;;;;6.95;96.23;102811.91;5095673;28;20036;-51
2023/02/04 03:53:56;;;;;;;34.15;4.22;;;;;;;6.90;96.72;102823.56;5095492;28;20378;-52
2023/02/04 03:56:22;;;;;;;20.65;3.50;;;;;;;6.71;96.73;102815.75;5096104;28;20044;-53
2023/02/04 03:58:50;;;;;;;32.00;4.68;;;;;;;6.75;97.33;102813.81;5095308;28;20059;-55
2023/02/04 04:01:16;;;;;;;34.13;4.63;;;;;;;6.80;97.71;102816.19;5095170;28;20078;-53
2023/02/04 04:03:43;;;;;;;29.27;4.07;;;;;;;6.72;97.46;102819.22;5095753;28;20044;-52
2023/02/04 04:06:10;;;;;;;29.98;4.13;;;;;;;6.76;97.04;102817.28;5095639;28;20051;-52
2023/02/04 04:08:37;;;;;;;26.02;3.70;;;;;;;6.72;97.52;102812.16;5095094;28;20059;-52
2023/02/04 04:11:04;;;;;;;26.00;4.00;;;;;;;6.70;97.63;102810.53;5095287;28;20109;-52
2023/02/04 04:13:31;;;;;;;40.50;4.85;;;;;;;6.65;97.80;102821.31;5095538;28;20040;-53
2023/02/04 04:15:57;;;;;;;33.42;4.20;;;;;;;6.77;97.68;102824.25;5095497;28;20586;-50
2023/02/04 04:18:24;;;;;;;27.52;4.57;;;;;;;6.70;97.72;102816.66;5095470;28;20040;-53
2023/02/04 04:20:51;;;;;;;26.98;3.80;;;;;;;6.62;97.79;102810.94;5095278;28;20040;-52
2023/02/04 04:23:17;;;;;;;31.33;4.43;;;;;;;6.69;98.52;102822.88;5094886;28;20055;-50
2023/02/04 04:25:44;;;;;;;38.50;4.82;;;;;;;6.72;97.80;102822.72;5095289;28;20051;-52
2023/02/04 04:28:10;;;;;;;27.33;4.10;;;;;;;6.69;98.25;102827.28;5095197;28;20048;-53
2023/02/04 04:30:37;;;;;;;36.50;4.45;;;;;;;6.62;99.02;102828.53;5095036;28;20079;-52
2023/02/04 04:33:04;;;;;;;34.47;4.18;;;;;;;6.55;99.41;102835.91;5095337;28;20485;-53
2023/02/04 04:35:31;;;;;;;30.95;3.97;;;;;;;6.60;98.72;102843.56;5094947;28;20051;-52
2023/02/04 04:37:58;;;;;;;38.55;4.95;;;;;;;6.55;99.30;102841.19;5095182;28;20059;-53
2023/02/04 04:40:24;;;;;;;33.97;4.63;;;;;;;6.50;99.19;102843.19;5095037;28;20044;-51
2023/02/04 04:42:51;;;;;;;38.83;4.82;;;;;;;6.50;100.00;102851.09;5094746;28;20044;-53
2023/02/04 04:45:18;;;;;;;28.73;4.20;;;;;;;6.46;99.70;102854.81;5094952;28;20101;-53
2023/02/04 04:47:45;;;;;;;33.08;4.93;;;;;;;6.38;100.00;102849.91;5094838;28;20363;-53
2023/02/04 04:50:12;;;;;;;29.55;4.70;;;;;;;6.39;100.00;102856.06;5094887;28;20040;-50
2023/02/04 04:52:39;;;;;;;59.95;6.07;;;;;;;6.56;100.00;102848.16;5094543;28;20048;-51
2023/02/04 04:55:07;;;;;;;34.90;4.45;;;;;;;6.43;100.00;102845.28;5094656;28;20040;-53
2023/02/04 04:57:33;;;;;;;29.23;5.10;;;;;;;6.47;100.00;102859.16;5094597;28;20044;-52
2023/02/04 05:00:00;;;;;;;36.38;4.57;;;;;;;6.39;100.00;102870.09;5093897;28;20044;-52
2023/02/04 05:02:27;;;;;;;31.08;4.50;;;;;;;6.39;100.00;102859.53;5093096;28;20079;-51
2023/02/04 05:04:53;;;;;;;30.10;5.32;;;;;;;6.46;100.00;102857.47;5094592;28;20051;-52
2023/02/04 05:07:20;;;;;;;36.35;4.35;;;;;;;6.51;100.00;102860.69;5094056;28;20535;-53
2023/02/04 05:09:47;;;;;;;30.90;4.88;;;;;;;6.59;99.89;102866.47;5082915;28;20440;-53
2023/02/04 05:12:14;;;;;;;22.60;4.13;;;;;;;6.55;99.66;102864.91;5062757;28;20037;-52
2023/02/04 05:14:40;;;;;;;28.10;4.35;;;;;;;6.63;100.00;102861.91;5072977;28;20044;-53
2023/02/04 05:17:07;;;;;;;28.85;4.47;;;;;;;6.66;100.00;102864.38;5072553;28;20379;-52
2023/02/04 05:19:34;;;;;;;36.08;5.07;;;;;;;6.62;100.00;102876.00;5078437;28;20068;-52
2023/02/04 05:22:00;;;;;;;31.15;4.65;;;;;;;6.68;99.92;102881.00;5093891;28;20059;-53
2023/02/04 05:24:27;;;;;;;31.73;4.13;;;;;;;6.59;99.69;102878.81;5094064;28;20048;-52
2023/02/04 05:26:54;;;;;;;33.50;4.97;;;;;;;6.61;99.13;102884.84;5094167;28;20076;-54
2023/02/04 05:29:20;;;;;;;40.92;6.45;;;;;;;6.56;100.00;102890.34;5093487;28;20374;-52
2023/02/04 05:31:47;;;;;;;33.10;5.43;;;;;;;6.52;100.00;102891.44;5093948;28;20048;-53
2023/02/04 05:34:14;;;;;;;39.33;5.57;;;;;;;6.49;100.00;102891.56;5093850;28;20046;-52
2023/02/04 05:36:40;;;;;;;26.63;4.28;;;;;;;6.59;100.00;102890.19;5092675;28;20040;-53
2023/02/04 05:39:07;;;;;;;45.40;5.78;;;;;;;6.47;100.00;102883.72;5093648;28;20056;-54
2023/02/04 05:41:33;;;;;;;34.85;5.47;;;;;;;6.39;100.00;102885.91;5093804;28;20513;-51
2023/02/04 05:44:00;;;;;;;42.20;5.93;;;;;;;6.37;100.00;102893.03;5076023;28;20051;-52
2023/02/04 05:46:27;;;;;;;34.72;5.30;;;;;;;6.38;100.00;102902.63;5093922;28;20040;-52
2023/02/04 05:48:53;;;;;;;36.95;5.35;;;;;;;6.30;100.00;102910.91;5093399;28;20077;-53
2023/02/04 05:51:20;;;;;;;36.47;6.90;;;;;;;6.35;100.00;102900.16;5092362;28;20563;-53
2023/02/04 05:53:47;;;;;;;27.80;4.68;;;;;;;6.43;100.00;102908.53;5093472;28;20044;-53
2023/02/04 05:56:14;;;;;;;31.55;4.55;;;;;;;6.46;100.00;102918.09;5093704;28;20056;-53
2023/02/04 05:58:41;;;;;;;30.42;4.97;;;;;;;6.42;100.00;102914.75;5093327;28;20123;-55
2023/02/04 06:01:08;;;;;;;39.65;5.65;;;;;;;6.41;100.00;102920.09;5092589;28;20048;-54
2023/02/04 06:03:35;;;;;;;34.03;5.72;;;;;;;6.40;100.00;102927.13;5093296;28;20067;-54
2023/02/04 06:06:01;;;;;;;33.25;5.43;;;;;;;6.44;100.00;102912.03;5093450;28;20052;-54
2023/02/04 06:08:28;;;;;;;29.52;4.78;;;;;;;6.39;100.00;102922.81;5093053;28;20447;-54
2023/02/04 06:10:55;;;;;;;35.13;5.60;;;;;;;6.26;100.00;102921.69;5092228;28;20093;-53
2023/02/04 06:13:21;;;;;;;23.92;4.45;;;;;;;6.34;100.00;102923.00;5093646;28;20488;-53
2023/02/04 06:15:48;;;;;;;36.35;5.82;;;;;;;6.36;100.00;102927.38;5093431;28;20052;-53
2023/02/04 06:18:15;;;;;;;31.50;4.63;;;;;;;6.32;100.00;102927.50;5093401;28;20097;-53
2023/02/04 06:20:41;;;;;;;33.67;5.03;;;;;;;6.37;100.00;102940.50;5093434;28;20048;-53
2023/02/04 06:23:08;;;;;;;36.92;5.75;;;;;;;6.25;100.00;102941.91;5093425;28;20048;-53
2023/02/04 06:25:35;;;;;;;32.72;4.60;;;;;;;6.26;100.00;102945.41;5093307;28;20048;-52
2023/02/04 06:28:02;;;;;;;40.92;5.32;;;;;;;6.34;100.00;102946.75;5093363;28;20044;-53
2023/02/04 06:30:29;;;;;;;41.55;5.15;;;;;;;6.28;100.00;102939.13;5097011;28;20481;-51
2023/02/04 06:32:56;;;;;;;41.10;5.50;;;;;;;6.30;100.00;102936.44;5097367;28;20481;-52
2023/02/04 06:35:22;;;;;;;37.17;4.88;;;;;;;6.37;100.00;102940.50;5097552;28;20485;-52
2023/02/04 06:37:49;;;;;;;28.90;4.50;;;;;;;6.45;100.00;102938.31;5097433;28;20512;-53
2023/02/04 06:40:16;;;;;;;31.08;4.57;;;;;;;6.51;99.90;102940.69;5097123;28;20062;-52
2023/02/04 06:42:42;;;;;;;38.95;6.20;;;;;;;6.54;99.66;102942.31;5097034;28;20048;-52
2023/02/04 06:45:09;;;;;;;35.22;4.68;;;;;;;6.50;99.62;102940.75;5097308;28;20040;-53
2023/02/04 06:47:35;;;;;;;30.58;5.80;;;;;;;6.42;99.76;102951.69;5096967;28;20082;-51
2023/02/04 06:50:02;;;;;;;47.83;5.25;;;;;;;6.44;99.33;102956.84;5096813;28;20481;-53
2023/02/04 06:52:29;;;;;;;33.72;5.65;;;;;;;6.39;100.00;102959.72;5096877;28;20035;-52
2023/02/04 06:54:56;;;;;;;31.75;4.65;;;;;;;6.43;100.00;102960.44;5096884;28;20101;-53
2023/02/04 06:57:23;;;;;;;35.22;5.85;;;;;;;6.32;100.00;102942.47;5095995;28;20052;-53
2023/02/04 06:59:49;;;;;;;45.25;5.43;;;;;;;6.33;100.00;102952.97;5096097;28;20094;-52
2023/02/04 07:02:16;;;;;;;34.17;5.15;;;;;;;6.47;100.00;102959.34;5096535;28;20135;-53
2023/02/04 07:04:43;;;;;;;43.95;6.07;;;;;;;6.50;99.90;102957.41;5096887;28;20040;-52
2023/02/04 07:07:11;;;;;;;35.55;5.70;;;;;;;6.54;99.56;102955.50;5088059;28;20054;-52
2023/02/04 07:09:39;;;;;;;34.85;4.97;;;;;;;6.63;99.42;102964.75;5096378;28;20040;-52
2023/02/04 07:12:06;;;;;;;38.80;7.13;;;;;;;6.53;99.14;102964.31;5072878;28;20036;-50
2023/02/04 07:14:33;;;;;;;34.45;5.93;;;;;;;6.41;100.00;102971.03;5095645;28;20040;-51
2023/02/04 07:17:01;;;;;;;38.88;5.55;;;;;;;6.31;100.00;102970.63;5096527;28;20048;-53
2023/02/04 07:19:27;;;;;;;36.90;5.53;;;;;;;6.28;100.00;102976.03;5096179;28;20047;-52
2023/02/04 07:21:55;;;;;;;33.78;5.80;;;;;;;6.38;100.00;102972.97;5096234;28;20052;-52
2023/02/04 07:24:22;;;;;;;32.97;5.55;;;;;;;6.37;100.00;102979.16;5096169;28;20039;-52
2023/02/04 07:26:49;;;;;;;36.55;6.00;;;;;;;6.32;100.00;102982.03;5096236;28;20489;-52
2023/02/04 07:29:18;;;;;;;40.95;6.00;;;;;;;6.22;100.00;102978.09;5096066;28;20070;-53
2023/02/04 07:31:51;;;;;;;35.03;5.72;;;;;;;6.14;100.00;102981.94;5096150;28;20044;-53
2023/02/04 07:34:19;;;;;;;31.13;5.40;;;;;;;6.20;100.00;102982.59;5096154;28;20394;-52
2023/02/04 07:36:46;;;;;;;32.42;6.00;;;;;;;6.13;100.00;103000.44;5096171;28;20040;-51
2023/02/04 07:39:13;;;;;;;42.53;6.68;;;;;;;6.08;100.00;103005.94;5095388;28;20070;-53
2023/02/04 07:41:40;;;;;;;43.83;6.43;;;;;;;6.37;100.00;102997.63;5095821;28;20044;-50
2023/02/04 07:44:06;;;;;;;40.35;6.03;;;;;;;6.36;100.00;102996.75;5095844;28;20093;-52
2023/02/04 07:46:33;;;;;;;35.10;6.50;;;;;;;6.39;100.00;102996.63;5095862;28;20462;-54
2023/02/04 07:49:00;;;;;;;36.22;6.47;;;;;;;6.43;100.00;103007.91;5095906;28;20046;-52
2023/02/04 07:51:27;;;;;;;44.88;6.55;;;;;;;6.42;100.00;103000.91;5095818;28;20567;-52
2023/02/04 07:53:55;;;;;;;36.60;7.45;;;;;;;6.39;100.00;103003.69;5095428;28;20394;-53
2023/02/04 07:56:22;;;;;;;44.80;6.32;;;;;;;6.29;100.00;103011.16;5095738;28;20566;-52
2023/02/04 07:58:49;;;;;;;34.22;6.30;;;;;;;6.32;100.00;103013.66;5095460;28;20075;-52
2023/02/04 08:01:16;;;;;;;43.75;7.45;;;;;;;6.44;100.00;103013.09;5093834;28;20040;-52
2023/02/04 08:03:43;;;;;;;43.70;7.30;;;;;;;6.40;100.00;103018.56;5095768;28;20040;-53
2023/02/04 08:06:10;;;;;;;44.83;6.80;;;;;;;6.49;100.00;103023.41;5095843;28;20390;-52
2023/02/04 08:08:36;;;;;;;41.72;7.13;;;;;;;6.58;100.00;103022.13;5095035;28;20109;-53
2023/02/04 08:11:03;;;;;;;39.72;6.57;;;;;;;6.51;100.00;103017.16;5095570;28;20082;-53
2023/02/04 08:13:30;;;;;;;40.72;6.50;;;;;;;6.57;100.00;103029.19;5095449;28;20072;-53
2023/02/04 08:15:57;;;;;;;35.08;6.97;;;;;;;6.65;100.00;103029.69;5095495;28;20082;-52
2023/02/04 08:18:24;;;;;;;42.10;7.40;;;;;;;6.60;100.00;103036.09;5095168;28;20081;-53
2023/02/04 08:20:51;;;;;;;39.97;7.03;;;;;;;6.57;100.00;103041.50;5095245;28;20044;-53
2023/02/04 08:23:18;;;;;;;40.10;6.82;;;;;;;6.61;100.00;103043.94;5094977;28;20113;-53
2023/02/04 08:25:44;;;;;;;47.90;7.07;;;;;;;6.77;100.00;103044.09;5095181;28;20040;-53
2023/02/04 08:28:11;;;;;;;44.72;6.05;;;;;;;6.73;100.00;103055.69;5094784;28;20071;-53
2023/02/04 08:30:38;;;;;;;41.42;6.90;;;;;;;6.77;99.55;103059.03;5094710;28;20040;-53
2023/02/04 08:33:04;;;;;;;36.10;7.15;;;;;;;6.72;99.54;103064.53;5095108;28;20093;-52
2023/02/04 08:35:31;;;;;;;39.63;6.85;;;;;;;6.82;99.53;103068.47;5095078;28;20048;-53
2023/02/04 08:37:58;;;;;;;41.90;7.18;;;;;;;6.75;99.90;103066.16;5095336;28;20074;-53
2023/02/04 08:40:24;;;;;;;36.30;7.97;;;;;;;6.82;99.19;103067.59;5093319;28;20044;-53
2023/02/04 08:42:51;;;;;;;46.05;7.88;;;;;;;6.95;98.93;103067.88;5094551;28;20097;-53
2023/02/04 08:45:17;;;;;;;35.70;7.13;;;;;;;7.00;99.24;103066.72;5094646;28;20048;-53
2023/02/04 08:47:44;;;;;;;33.38;6.85;;;;;;;7.03;97.97;103071.00;5094707;28;20096;-52
2023/02/04 08:50:11;;;;;;;40.63;7.68;;;;;;;7.08;97.38;103080.41;5094536;28;20044;-53
2023/02/04 08:52:37;;;;;;;34.65;7.43;;;;;;;7.12;97.11;103075.84;5093899;28;20063;-53
2023/02/04 08:55:04;;;;;;;45.78;7.10;;;;;;;7.03;98.27;103085.03;5094420;28;20040;-51
2023/02/04 08:57:33;;;;;;;52.08;9.10;;;;;;;7.10;98.32;103085.63;5094555;28;20127;-53
2023/02/04 09:00:01;;;;;;;41.92;8.13;;;;;;;7.17;97.92;103094.06;5093447;28;20142;-51
2023/02/04 09:02:28;;;;;;;46.70;7.18;;;;;;;7.33;96.57;103081.88;5094323;28;20044;-54
2023/02/04 09:04:55;;;;;;;47.42;7.70;;;;;;;7.20;96.78;103086.88;5093172;28;20071;-53
2023/02/04 09:07:22;;;;;;;37.78;7.75;;;;;;;7.08;97.22;103080.41;5093917;28;20105;-53
2023/02/04 09:09:49;;;;;;;41.10;6.90;;;;;;;7.04;97.94;103091.16;5094230;28;20050;-51
2023/02/04 09:12:15;;;;;;;44.47;7.25;;;;;;;7.03;98.47;103095.59;5080394;28;20068;-52
2023/02/04 09:14:42;;;;;;;60.85;8.30;;;;;;;7.02;98.44;103093.03;5073680;28;20106;-53
2023/02/04 09:17:08;;;;;;;50.03;8.43;;;;;;;7.13;97.96;103098.69;5073309;28;20448;-51
2023/02/04 09:19:35;;;;;;;47.38;8.05;;;;;;;7.01;98.90;103104.53;5078796;28;20097;-53
2023/02/04 09:22:02;;;;;;;35.95;7.22;;;;;;;6.99;98.97;103103.75;5093948;28;20055;-51
2023/02/04 09:24:29;;;;;;;43.00;7.28;;;;;;;7.02;98.49;103107.09;5093719;28;20432;-51
2023/02/04 09:26:56;;;;;;;39.45;7.53;;;;;;;7.14;98.22;103100.38;5081729;28;20063;-52
2023/02/04 09:29:22;;;;;;;44.20;8.13;;;;;;;7.30;96.20;103100.50;5072432;28;20044;-53
2023/02/04 09:31:49;;;;;;;34.80;7.65;;;;;;;7.19;97.44;103108.09;5073715;28;20053;-52
2023/02/04 09:34:15;;;;;;;46.05;8.43;;;;;;;7.20;96.85;103110.63;5073759;28;20047;-52
2023/02/04 09:36:42;;;;;;;36.05;8.43;;;;;;;7.26;97.08;103110.34;5073415;28;20059;-52
2023/02/04 09:39:09;;;;;;;46.25;9.02;;;;;;;7.49;95.96;103111.88;5073468;28;20037;-53
2023/02/04 09:41:39;;;;;;;48.00;7.82;;;;;;;7.55;95.54;103107.19;5073119;28;20425;-52
2023/02/04 09:44:14;;;;;;;44.97;8.95;;;;;;;7.66;94.65;103103.09;5073568;28;20048;-52
2023/02/04 09:46:51;;;;;;;47.17;7.80;;;;;;;7.71;94.85;103105.47;5073661;28;20128;-54
2023/02/04 09:49:18;;;;;;;44.63;7.93;;;;;;;7.69;94.60;103115.28;5075960;28;20121;-52
2023/02/04 09:51:46;;;;;;;43.83;7.20;;;;;;;7.67;94.27;103117.16;5092230;28;20070;-52
2023/02/04 09:54:15;;;;;;;45.00;8.07;;;;;;;7.61;93.66;103115.66;5093453;28;20067;-53
2023/02/04 09:56:42;;;;;;;51.60;8.82;;;;;;;7.57;94.82;103123.84;5093563;28;20101;-53
2023/02/04 09:59:16;;;;;;;46.17;8.07;;;;;;;7.36;95.85;103133.66;5093067;28;20093;-53
2023/02/04 10:01:43;;;;;;;40.28;8.48;;;;;;;7.36;97.15;103129.22;5093181;28;20040;-54
2023/02/04 10:04:13;;;;;;;54.50;8.32;;;;;;;7.32;96.47;103135.59;5093138;28;20447;-52
2023/02/04 10:06:41;;;;;;;41.42;9.57;;;;;;;7.56;95.36;103136.16;5091257;28;20048;-53
2023/02/04 10:09:11;;;;;;;44.00;9.27;;;;;;;7.59;95.09;103140.47;5093362;28;20127;-52
2023/02/04 10:11:40;;;;;;;42.22;9.50;;;;;;;7.62;96.04;103135.00;5075488;28;20127;-52
2023/02/04 10:14:14;;;;;;;48.63;9.43;;;;;;;7.61;95.46;103134.16;5093479;28;20090;-53
2023/02/04 10:16:42;;;;;;;55.95;10.75;;;;;;;7.80;95.06;103139.38;5093558;28;20044;-53
2023/02/04 10:19:14;;;;;;;55.95;9.18;;;;;;;7.84;93.92;103134.78;5093425;28;20044;-52
2023/02/04 10:21:43;;;;;;;46.28;10.10;;;;;;;7.78;94.96;103140.38;5093389;28;20048;-53
2023/02/04 10:24:16;;;;;;;46.78;10.73;;;;;;;7.98;93.83;103145.50;5092881;28;20546;-54
2023/02/04 10:26:43;;;;;;;49.47;10.82;;;;;;;8.02;93.51;103146.22;5093262;28;20040;-53
2023/02/04 10:29:14;;;;;;;55.70;12.00;;;;;;;7.80;93.91;103139.38;5091868;28;20032;-52
2023/02/04 10:31:43;;;;;;;47.05;11.20;;;;;;;7.78;94.01;103138.59;5093372;28;20481;-54
2023/02/04 10:34:16;;;;;;;55.13;10.95;;;;;;;7.69;94.14;103139.94;5093249;28;20091;-54
2023/02/04 10:36:47;;;;;;;52.13;10.45;;;;;;;7.71;94.50;103141.63;5092001;28;20342;-53
2023/02/04 10:39:20;;;;;;;55.85;12.70;;;;;;;7.57;95.10;103137.91;5093058;28;20072;-53
2023/02/04 10:41:51;;;;;;;53.42;12.77;;;;;;;7.86;93.71;103144.38;5092899;28;20040;-54
2023/02/04 10:44:28;;;;;;;59.30;14.07;;;;;;;7.79;93.63;103150.03;5093428;28;20105;-53
2023/02/04 10:47:00;;;;;;;63.78;14.00;;;;;;;7.76;93.95;103139.63;5093178;28;20040;-53
2023/02/04 10:49:27;;;;;;;;;;;;;;;7.83;93.82;103151.59;5092477;28;20043;-53
2023/02/04 10:51:53;;;;;;;59.00;13.90;;;;;;;8.04;92.07;103145.22;5092605;28;19920;-53
2023/02/04 10:54:31;;;;;;;67.85;15.50;;;;;;;8.07;91.55;103142.38;5093133;28;20502;-53
2023/02/04 10:57:19;;;;;;;66.40;17.08;;;;;;;8.22;91.02;103137.25;5091975;28;20044;-53
2023/02/04 10:59:50;;;;;;;76.80;19.45;;;;;;;8.24;90.34;103138.00;5092010;28;20055;-53
2023/02/04 11:02:41;;;;;;;71.10;19.25;;;;;;;8.35;89.79;103140.97;5092654;28;20510;-53
2023/02/04 11:05:13;;;;;;;78.95;19.30;;;;;;;8.63;88.68;103143.03;5093064;28;20044;-53
2023/02/04 11:07:41;;;;;;;75.47;20.38;;;;;;;8.77;88.14;103142.28;5092354;28;20048;-54
2023/02/04 11:10:12;;;;;;;77.38;19.48;;;;;;;8.96;87.29;103143.91;5092764;28;20097;-53
2023/02/04 11:12:43;;;;;;;61.85;17.42;;;;;;;9.14;86.41;103137.59;5091695;28;20571;-53
2023/02/04 11:15:45;;;;;;;76.13;18.38;;;;;;;9.26;84.43;103145.78;5094519;28;20040;-53
2023/02/04 11:18:27;;;;;;;68.70;18.83;;;;;;;9.12;85.50;103144.78;5096393;28;20039;-53
2023/02/04 11:20:56;;;;;;;76.65;21.63;;;;;;;8.82;85.63;103148.19;5096587;28;20044;-52
2023/02/04 11:26:13;;;;;;;85.68;23.25;;;;;;;9.15;84.36;103141.09;5110770;27;20387;-54
2023/02/04 11:28:45;;;;;;;83.45;20.55;;;;;;;9.10;83.43;103136.06;5093620;28;20089;-55